createdAt,value
2019-03-06T00:01:24.056Z,2.00
2019-03-06T00:03:29.547Z,0.90
2019-03-06T00:05:34.975Z,2.08
2019-03-06T00:07:40.490Z,1.50
2019-03-06T00:09:46.223Z,1.50
2019-03-06T00:11:51.746Z,2.90
2019-03-06T00:13:57.206Z,1.20
2019-03-06T00:16:02.741Z,1.25
2019-03-06T00:18:08.242Z,1.67
2019-03-06T00:20:13.684Z,3.90
2019-03-06T00:22:19.227Z,1.25
2019-03-06T00:24:25.995Z,1.95
2019-03-06T00:26:31.491Z,1.42
2019-03-06T00:28:36.978Z,1.87
2019-03-06T00:30:42.532Z,1.02
2019-03-06T00:32:48.046Z,2.20
2019-03-06T00:34:54.468Z,1.98
2019-03-06T00:36:59.986Z,1.30
2019-03-06T00:39:08.746Z,0.90
2019-03-06T00:41:19.280Z,1.07
2019-03-06T00:43:27.173Z,1.30
2019-03-06T00:45:32.810Z,1.02
2019-03-06T00:47:38.376Z,1.80
2019-03-06T00:49:43.907Z,1.15
2019-03-06T00:51:49.455Z,0.80
2019-03-06T00:53:55.019Z,2.67
2019-03-06T00:56:00.954Z,1.32
2019-03-06T00:58:06.518Z,1.20
2019-03-06T01:00:13.494Z,1.67
2019-03-06T01:02:18.950Z,1.35
2019-03-06T01:04:27.263Z,4.00
2019-03-06T01:06:32.699Z,2.02
2019-03-06T01:08:38.212Z,1.10
2019-03-06T01:10:43.764Z,0.90
2019-03-06T01:12:49.266Z,1.50
2019-03-06T01:14:54.779Z,2.00
2019-03-06T01:17:00.175Z,2.72
2019-03-06T01:19:05.752Z,1.30
2019-03-06T01:21:11.227Z,1.17
2019-03-06T01:23:16.661Z,2.25
2019-03-06T01:25:22.492Z,1.40
2019-03-06T01:27:28.398Z,1.40
2019-03-06T01:29:33.819Z,0.95
2019-03-06T01:31:39.281Z,1.77
2019-03-06T01:34:18.849Z,1.95
2019-03-06T01:36:42.150Z,6.40
2019-03-06T01:39:15.866Z,1.67
2019-03-06T01:41:40.220Z,1.80
2019-03-06T01:43:50.146Z,1.50
2019-03-06T01:45:58.447Z,3.85
2019-03-06T01:48:04.097Z,1.87
2019-03-06T01:50:12.613Z,1.60
2019-03-06T01:52:18.115Z,1.25
2019-03-06T01:54:26.869Z,1.52
2019-03-06T01:56:32.374Z,1.50
2019-03-06T01:58:37.797Z,1.40
2019-03-06T02:00:44.185Z,2.40
2019-03-06T02:02:49.683Z,1.40
2019-03-06T02:04:55.139Z,2.77
2019-03-06T02:07:00.889Z,1.57
2019-03-06T02:09:09.225Z,6.37
2019-03-06T02:11:14.814Z,2.98
2019-03-06T02:13:22.876Z,1.40
2019-03-06T02:15:30.090Z,2.08
2019-03-06T02:17:35.603Z,1.47
2019-03-06T02:19:41.603Z,1.77
2019-03-06T02:21:47.042Z,3.22
2019-03-06T02:23:52.462Z,3.85
2019-03-06T02:25:57.939Z,2.85
2019-03-06T02:28:03.418Z,2.92
2019-03-06T02:30:12.192Z,1.10
2019-03-06T02:32:17.646Z,1.70
2019-03-06T02:34:23.164Z,0.93
2019-03-06T02:36:30.401Z,3.22
2019-03-06T02:38:35.891Z,1.00
2019-03-06T02:40:41.335Z,1.57
2019-03-06T02:42:46.868Z,1.98
2019-03-06T02:44:52.517Z,3.27
2019-03-06T02:46:58.283Z,3.70
2019-03-06T02:49:06.841Z,3.47
2019-03-06T02:51:12.716Z,4.10
2019-03-06T02:53:18.214Z,1.00
2019-03-06T02:55:27.787Z,1.10
2019-03-06T02:57:33.211Z,1.67
2019-03-06T03:00:09.975Z,2.50
2019-03-06T03:02:38.159Z,1.22
2019-03-06T03:05:09.032Z,2.30
2019-03-06T03:07:17.066Z,1.15
2019-03-06T03:09:22.543Z,2.15
2019-03-06T03:11:29.442Z,1.20
2019-03-06T03:13:34.921Z,1.22
2019-03-06T03:15:40.448Z,0.82
2019-03-06T03:17:45.971Z,1.45
2019-03-06T03:19:51.455Z,1.15
2019-03-06T03:21:56.903Z,2.95
2019-03-06T03:24:02.321Z,1.12
2019-03-06T03:26:07.845Z,1.30
2019-03-06T03:28:13.358Z,1.95
2019-03-06T03:30:18.820Z,1.85
2019-03-06T03:32:24.291Z,3.00
2019-03-06T03:34:29.794Z,3.37
2019-03-06T03:36:35.282Z,2.25
2019-03-06T03:38:41.052Z,4.22
2019-03-06T03:40:46.494Z,1.67
2019-03-06T03:42:52.238Z,1.65
2019-03-06T03:44:57.764Z,2.83
2019-03-06T03:47:03.374Z,1.22
2019-03-06T03:49:10.415Z,1.77
2019-03-06T03:51:15.932Z,1.05
2019-03-06T03:53:21.391Z,2.05
2019-03-06T03:55:28.881Z,1.00
2019-03-06T03:57:34.512Z,0.95
2019-03-06T03:59:39.956Z,1.27
2019-03-06T04:01:45.555Z,1.10
2019-03-06T04:03:51.062Z,0.95
2019-03-06T04:05:56.685Z,3.60
2019-03-06T04:08:02.207Z,0.90
2019-03-06T04:10:08.682Z,2.15
2019-03-06T04:12:14.162Z,1.70
2019-03-06T04:14:19.664Z,2.75
2019-03-06T04:16:25.235Z,1.60
2019-03-06T04:18:34.890Z,6.22
2019-03-06T04:20:40.623Z,3.85
2019-03-06T04:22:46.451Z,4.03
2019-03-06T04:24:51.863Z,1.05
2019-03-06T04:26:57.403Z,0.95
2019-03-06T04:29:02.868Z,2.55
2019-03-06T04:31:10.036Z,1.60
2019-03-06T04:33:15.623Z,1.05
2019-03-06T04:35:21.356Z,2.45
2019-03-06T04:37:26.922Z,0.90
2019-03-06T04:39:32.393Z,3.67
2019-03-06T04:41:37.962Z,1.65
2019-03-06T04:43:43.516Z,0.88
2019-03-06T04:45:49.031Z,2.58
2019-03-06T04:47:54.515Z,1.32
2019-03-06T04:50:00.069Z,1.70
2019-03-06T04:52:07.619Z,2.33
2019-03-06T04:54:13.046Z,1.07
2019-03-06T04:56:18.501Z,2.95
2019-03-06T04:58:23.999Z,0.70
2019-03-06T05:00:31.937Z,4.72
2019-03-06T05:02:37.498Z,1.85
2019-03-06T05:04:43.487Z,1.12
2019-03-06T05:06:49.057Z,2.50
2019-03-06T05:08:54.459Z,2.12
2019-03-06T05:10:59.874Z,1.80
2019-03-06T05:13:07.015Z,1.92
2019-03-06T05:15:12.867Z,6.08
2019-03-06T05:17:35.491Z,1.72
2019-03-06T05:19:40.914Z,3.90
2019-03-06T05:21:46.390Z,4.97
2019-03-06T05:23:51.955Z,3.47
2019-03-06T05:25:57.378Z,3.60
2019-03-06T05:28:02.945Z,3.70
2019-03-06T05:30:09.778Z,2.02
2019-03-06T05:32:33.340Z,2.42
2019-03-06T05:34:44.519Z,1.92
2019-03-06T05:37:23.169Z,1.62
2019-03-06T05:39:29.753Z,1.72
2019-03-06T05:41:35.219Z,4.05
2019-03-06T05:43:40.815Z,1.82
2019-03-06T05:45:46.314Z,2.70
2019-03-06T05:47:51.752Z,7.05
2019-03-06T05:49:59.850Z,4.17
2019-03-06T05:52:05.454Z,16.35
2019-03-06T05:54:13.494Z,9.85
2019-03-06T05:56:48.504Z,14.23
2019-03-06T05:58:54.391Z,13.20
2019-03-06T06:00:59.913Z,21.23
2019-03-06T06:03:05.727Z,7.17
2019-03-06T06:05:15.883Z,8.70
2019-03-06T06:07:21.751Z,11.95
2019-03-06T06:09:28.065Z,12.40
2019-03-06T06:11:36.919Z,8.38
2019-03-06T06:13:42.737Z,6.15
2019-03-06T06:15:51.688Z,5.03
2019-03-06T06:18:00.210Z,8.55
2019-03-06T06:20:18.679Z,5.12
2019-03-06T06:22:32.207Z,7.30
2019-03-06T06:24:37.786Z,6.90
2019-03-06T06:26:45.110Z,5.95
2019-03-06T06:28:53.739Z,3.52
2019-03-06T06:31:04.571Z,6.50
2019-03-06T06:33:09.606Z,5.65
2019-03-06T06:35:15.475Z,7.85
2019-03-06T06:37:20.986Z,6.80
2019-03-06T06:39:26.963Z,3.40
2019-03-06T06:41:32.472Z,5.30
2019-03-06T06:43:41.620Z,2.15
2019-03-06T06:45:47.548Z,6.58
2019-03-06T06:48:28.277Z,5.70
2019-03-06T06:50:34.250Z,5.85
2019-03-06T06:53:14.286Z,4.03
2019-03-06T06:55:32.947Z,3.80
2019-03-06T06:58:14.394Z,7.75
2019-03-06T07:00:56.760Z,2.50
2019-03-06T07:04:02.711Z,5.83
2019-03-06T07:06:19.723Z,3.02
2019-03-06T07:08:43.495Z,2.20
2019-03-06T07:11:03.994Z,3.72
2019-03-06T07:13:15.142Z,2.67
2019-03-06T07:15:58.544Z,2.40
2019-03-06T07:18:16.706Z,2.27
2019-03-06T07:20:33.295Z,2.67
2019-03-06T07:22:47.619Z,1.77
2019-03-06T07:25:13.225Z,4.40
2019-03-06T07:27:32.656Z,1.75
2019-03-06T07:29:57.066Z,2.15
2019-03-06T07:32:27.645Z,2.70
2019-03-06T07:34:53.006Z,2.85
2019-03-06T07:37:11.500Z,2.42
2019-03-06T07:39:24.007Z,5.53
2019-03-06T07:41:51.462Z,3.85
2019-03-06T07:44:10.787Z,1.72
2019-03-06T07:46:38.010Z,3.95
2019-03-06T07:49:09.978Z,2.83
2019-03-06T07:51:25.356Z,2.15
2019-03-06T07:54:20.991Z,2.55
2019-03-06T07:56:30.615Z,2.75
2019-03-06T07:58:51.611Z,3.52
2019-03-06T08:00:57.081Z,5.15
2019-03-06T08:03:09.130Z,4.25
2019-03-06T08:05:14.629Z,2.62
2019-03-06T08:07:20.143Z,7.17
2019-03-06T08:09:26.074Z,7.35
2019-03-06T08:11:37.008Z,5.17
2019-03-06T08:13:50.502Z,6.87
2019-03-06T08:16:04.683Z,5.23
2019-03-06T08:18:40.791Z,6.13
2019-03-06T08:21:03.843Z,4.20
2019-03-06T08:23:29.193Z,7.13
2019-03-06T08:25:43.866Z,7.10
2019-03-06T08:27:49.118Z,5.20
2019-03-06T08:29:54.386Z,6.73
2019-03-06T08:32:04.323Z,6.07
2019-03-06T08:34:09.727Z,4.80
2019-03-06T08:36:15.177Z,4.47
2019-03-06T08:38:20.483Z,6.00
2019-03-06T08:40:25.687Z,5.43
2019-03-06T08:42:32.572Z,6.00
2019-03-06T08:44:37.950Z,4.40
2019-03-06T08:46:50.262Z,5.90
2019-03-06T08:49:15.214Z,9.27
2019-03-06T08:51:48.639Z,5.23
2019-03-06T08:54:10.711Z,5.13
2019-03-06T08:56:24.068Z,6.70
2019-03-06T08:58:48.478Z,7.10
2019-03-06T09:01:21.716Z,6.47
2019-03-06T09:03:44.418Z,6.57
2019-03-06T09:06:09.723Z,8.23
2019-03-06T09:08:54.961Z,7.17
2019-03-06T09:11:17.552Z,8.30
2019-03-06T09:13:29.035Z,6.80
2019-03-06T09:15:59.258Z,10.43
2019-03-06T09:18:22.230Z,8.83
2019-03-06T09:20:41.125Z,6.83
2019-03-06T09:22:54.928Z,7.83
2019-03-06T09:25:05.446Z,7.43
2019-03-06T09:27:34.007Z,7.23
2019-03-06T09:30:06.354Z,9.70
2019-03-06T09:32:29.544Z,9.27
2019-03-06T09:34:53.757Z,8.40
2019-03-06T09:37:24.051Z,7.23
2019-03-06T09:39:42.823Z,8.30
2019-03-06T09:42:15.627Z,8.10
2019-03-06T09:44:35.126Z,7.70
2019-03-06T09:47:04.983Z,8.40
2019-03-06T09:49:16.270Z,9.13
2019-03-06T09:51:37.039Z,9.77
2019-03-06T09:53:59.458Z,9.70
2019-03-06T09:56:31.587Z,11.13
2019-03-06T09:58:54.478Z,7.30
2019-03-06T10:01:18.668Z,7.97
2019-03-06T10:03:36.262Z,6.97
2019-03-06T10:05:56.368Z,9.17
2019-03-06T10:08:09.983Z,7.37
2019-03-06T10:10:28.882Z,9.80
2019-03-06T10:12:47.496Z,7.77
2019-03-06T10:15:21.849Z,7.03
2019-03-06T10:17:34.195Z,5.47
2019-03-06T10:20:07.534Z,6.10
2019-03-06T10:22:12.846Z,9.43
2019-03-06T10:24:18.089Z,7.30
2019-03-06T10:26:23.325Z,7.33
2019-03-06T10:28:28.559Z,7.13
2019-03-06T10:30:34.042Z,7.93
2019-03-06T10:32:39.285Z,7.37
2019-03-06T10:34:44.537Z,10.80
2019-03-06T10:36:49.809Z,9.70
2019-03-06T10:38:55.010Z,8.10
2019-03-06T10:41:00.439Z,8.03
2019-03-06T10:43:05.736Z,8.60
2019-03-06T10:45:11.003Z,8.07
2019-03-06T10:47:16.283Z,10.27
2019-03-06T10:49:21.519Z,9.80
2019-03-06T10:51:26.731Z,8.30
2019-03-06T10:53:40.898Z,7.77
2019-03-06T10:55:39.007Z,8.33
2019-03-06T10:57:44.259Z,8.23
2019-03-06T10:59:49.510Z,7.63
2019-03-06T11:01:54.776Z,11.37
2019-03-06T11:04:27.842Z,7.93
2019-03-06T11:06:33.163Z,7.50
2019-03-06T11:08:38.411Z,6.70
2019-03-06T11:10:46.871Z,7.90
2019-03-06T11:12:52.128Z,10.13
2019-03-06T11:14:57.388Z,7.77
2019-03-06T11:17:02.635Z,7.63
2019-03-06T11:19:08.398Z,8.87
2019-03-06T11:21:13.706Z,7.40
2019-03-06T11:23:18.916Z,6.67
2019-03-06T11:25:24.378Z,11.33
2019-03-06T11:27:29.834Z,9.63
2019-03-06T11:29:35.132Z,11.30
2019-03-06T11:31:40.495Z,7.10
2019-03-06T11:33:45.860Z,8.70
2019-03-06T11:35:52.251Z,10.20
2019-03-06T11:37:57.696Z,8.50
2019-03-06T11:40:03.158Z,7.20
2019-03-06T11:42:09.340Z,8.73
2019-03-06T11:44:14.579Z,8.57
2019-03-06T11:46:20.858Z,10.63
2019-03-06T11:48:26.090Z,10.20
2019-03-06T11:50:40.413Z,11.60
2019-03-06T11:52:38.270Z,15.60
2019-03-06T11:54:43.515Z,13.80
2019-03-06T11:56:48.799Z,9.30
2019-03-06T11:58:54.141Z,9.97
2019-03-06T12:00:59.402Z,9.50
2019-03-06T12:03:05.706Z,10.37
2019-03-06T12:05:10.964Z,10.70
2019-03-06T12:07:16.198Z,13.17
2019-03-06T12:09:27.600Z,13.47
2019-03-06T12:11:32.827Z,10.43
2019-03-06T12:13:40.158Z,9.03
2019-03-06T12:15:47.842Z,12.47
2019-03-06T12:17:53.049Z,10.73
2019-03-06T12:20:07.578Z,9.27
2019-03-06T12:22:08.947Z,8.70
2019-03-06T12:24:14.280Z,8.70
2019-03-06T12:26:19.532Z,10.57
2019-03-06T12:28:24.960Z,8.67
2019-03-06T12:30:30.244Z,10.20
2019-03-06T12:32:35.441Z,8.70
2019-03-06T12:34:40.659Z,10.13
2019-03-06T12:36:45.848Z,9.47
2019-03-06T12:38:51.106Z,10.20
2019-03-06T12:40:56.363Z,15.27
2019-03-06T12:43:01.723Z,8.43
2019-03-06T12:45:11.986Z,9.50
2019-03-06T12:47:17.222Z,11.50
2019-03-06T12:49:23.557Z,13.43
2019-03-06T12:51:29.171Z,14.60
2019-03-06T12:53:34.418Z,10.20
2019-03-06T12:55:39.910Z,9.87
2019-03-06T12:57:45.094Z,9.10
2019-03-06T12:59:50.332Z,10.13
2019-03-06T13:01:55.599Z,15.67
2019-03-06T13:04:01.014Z,15.20
2019-03-06T13:06:06.333Z,10.63
2019-03-06T13:08:19.471Z,11.20
2019-03-06T13:10:22.457Z,12.50
2019-03-06T13:12:29.249Z,11.93
2019-03-06T13:14:34.572Z,13.33
2019-03-06T13:16:41.077Z,11.60
2019-03-06T13:18:46.566Z,11.83
2019-03-06T13:20:52.026Z,14.03
2019-03-06T13:22:57.326Z,16.10
2019-03-06T13:25:02.593Z,13.67
2019-03-06T13:27:07.975Z,13.23
2019-03-06T13:29:13.363Z,14.50
2019-03-06T13:31:18.604Z,19.40
2019-03-06T13:33:29.551Z,12.67
2019-03-06T13:35:34.884Z,16.73
2019-03-06T13:37:40.184Z,16.13
2019-03-06T13:39:49.018Z,15.13
2019-03-06T13:41:54.341Z,15.57
2019-03-06T13:43:59.566Z,13.83
2019-03-06T13:46:05.143Z,15.60
2019-03-06T13:48:10.402Z,15.83
2019-03-06T13:50:16.030Z,16.37
2019-03-06T13:52:21.331Z,15.50
2019-03-06T13:54:26.600Z,14.93
2019-03-06T13:56:31.984Z,17.30
2019-03-06T13:58:37.282Z,16.87
2019-03-06T14:00:42.747Z,17.23
2019-03-06T14:02:48.630Z,13.00
2019-03-06T14:04:53.919Z,16.43
2019-03-06T14:06:59.170Z,16.50
2019-03-06T14:09:06.566Z,15.83
2019-03-06T14:11:11.852Z,17.23
2019-03-06T14:13:17.161Z,14.20
2019-03-06T14:15:23.015Z,18.87
2019-03-06T14:17:29.200Z,21.70
2019-03-06T14:19:34.466Z,19.10
2019-03-06T14:21:39.882Z,16.03
2019-03-06T14:23:45.619Z,17.00
2019-03-06T14:25:50.899Z,16.80
2019-03-06T14:27:56.303Z,16.77
2019-03-06T14:30:01.614Z,20.30
2019-03-06T14:32:14.278Z,23.50
2019-03-06T14:34:13.872Z,17.57
2019-03-06T14:36:19.111Z,16.30
2019-03-06T14:38:25.474Z,14.80
2019-03-06T14:40:33.576Z,18.17
2019-03-06T14:42:38.844Z,21.70
2019-03-06T14:44:44.098Z,19.40
2019-03-06T14:46:49.363Z,19.70
2019-03-06T14:48:54.989Z,18.03
2019-03-06T14:51:00.267Z,17.27
2019-03-06T14:53:06.204Z,18.30
2019-03-06T14:55:12.527Z,16.20
2019-03-06T14:57:17.789Z,13.60
2019-03-06T14:59:23.028Z,17.97
2019-03-06T15:01:28.611Z,17.50
2019-03-06T15:03:33.878Z,18.03
2019-03-06T15:05:46.929Z,23.02
2019-03-06T15:07:46.591Z,15.63
2019-03-06T15:09:52.151Z,17.90
2019-03-06T15:11:57.667Z,17.95
2019-03-06T15:14:03.182Z,21.70
2019-03-06T15:16:09.059Z,21.02
2019-03-06T15:18:14.874Z,17.62
2019-03-06T15:20:20.555Z,19.48
2019-03-06T15:22:26.282Z,19.27
2019-03-06T15:24:40.731Z,15.13
2019-03-06T15:26:39.102Z,19.23
2019-03-06T15:28:44.647Z,19.40
2019-03-06T15:30:50.168Z,19.87
2019-03-06T15:32:55.702Z,18.30
2019-03-06T15:35:08.997Z,20.62
2019-03-06T15:37:16.415Z,15.70
2019-03-06T15:39:48.116Z,17.75
2019-03-06T15:41:48.191Z,21.27
2019-03-06T15:43:53.715Z,17.10
2019-03-06T15:45:59.263Z,16.57
2019-03-06T15:48:05.530Z,18.90
2019-03-06T15:50:12.231Z,14.90
2019-03-06T15:52:17.697Z,14.80
2019-03-06T15:54:23.616Z,20.95
2019-03-06T15:56:29.211Z,19.50
2019-03-06T15:58:34.954Z,17.85
2019-03-06T16:00:46.386Z,14.47
2019-03-06T16:02:49.742Z,18.65
2019-03-06T16:04:55.255Z,14.23
2019-03-06T16:07:00.746Z,19.77
2019-03-06T16:09:08.518Z,11.95
2019-03-06T16:11:14.276Z,17.87
2019-03-06T16:13:19.914Z,18.30
2019-03-06T16:15:26.511Z,16.10
2019-03-06T16:17:32.030Z,10.20
2019-03-06T16:19:37.542Z,15.40
2019-03-06T16:21:43.317Z,17.35
2019-03-06T16:23:48.839Z,12.03
2019-03-06T16:25:54.316Z,26.42
2019-03-06T16:27:59.951Z,14.90
2019-03-06T16:30:07.446Z,20.88
2019-03-06T16:32:12.962Z,31.95
2019-03-06T16:34:18.495Z,10.63
2019-03-06T16:36:24.103Z,12.28
2019-03-06T16:38:29.658Z,15.98
2019-03-06T16:40:35.495Z,16.30
2019-03-06T16:42:41.069Z,18.77
2019-03-06T16:44:47.701Z,16.77
2019-03-06T16:46:53.307Z,22.25
2019-03-06T16:48:59.070Z,23.62
2019-03-06T16:51:05.153Z,15.95
2019-03-06T16:53:10.868Z,13.32
2019-03-06T16:55:21.260Z,14.73
2019-03-06T17:00:42.040Z,13.18
2019-03-06T17:02:47.546Z,16.55
2019-03-06T17:04:56.321Z,29.15
2019-03-06T17:07:05.274Z,11.97
2019-03-06T17:09:15.831Z,9.83
2019-03-06T17:11:21.372Z,19.48
2019-03-06T17:13:26.962Z,17.75
2019-03-06T17:15:33.104Z,17.90
2019-03-06T17:17:38.650Z,22.22
2019-03-06T17:19:44.211Z,21.75
2019-03-06T17:21:49.819Z,26.00
2019-03-06T17:23:58.114Z,31.97
2019-03-06T17:26:03.745Z,32.88
2019-03-06T17:28:10.066Z,35.95
2019-03-06T17:30:18.546Z,41.08
2019-03-06T17:32:24.092Z,45.67
2019-03-06T17:34:29.624Z,35.05
2019-03-06T17:36:35.128Z,14.53
2019-03-06T17:38:40.746Z,25.20
2019-03-06T17:40:50.822Z,25.80
2019-03-06T17:42:56.466Z,23.20
2019-03-06T17:45:02.602Z,13.38
2019-03-06T17:47:08.225Z,11.43
2019-03-06T17:49:13.737Z,13.53
2019-03-06T17:51:19.267Z,19.70
2019-03-06T17:53:24.817Z,32.53
2019-03-06T17:55:33.702Z,20.92
2019-03-06T17:57:39.242Z,21.27
2019-03-06T17:59:44.794Z,23.90
2019-03-06T18:01:51.801Z,20.65
2019-03-06T18:04:15.385Z,26.45
2019-03-06T18:06:21.051Z,30.82
2019-03-06T18:08:26.550Z,20.92
2019-03-06T18:10:32.395Z,18.60
2019-03-06T18:12:38.399Z,25.23
2019-03-06T18:14:43.936Z,25.72
2019-03-06T18:16:49.508Z,21.82
2019-03-06T18:19:15.568Z,22.50
2019-03-06T18:21:21.116Z,29.20
2019-03-06T18:23:26.628Z,52.48
2019-03-06T18:25:35.228Z,47.53
2019-03-06T18:27:41.173Z,51.05
2019-03-06T18:29:46.707Z,36.38
2019-03-06T18:31:52.421Z,27.75
2019-03-06T18:33:58.082Z,17.60
2019-03-06T18:36:04.904Z,12.55
2019-03-06T18:38:10.546Z,12.98
2019-03-06T18:40:17.659Z,33.45
2019-03-06T18:42:23.214Z,32.15
2019-03-06T18:44:31.467Z,25.48
2019-03-06T18:46:37.133Z,28.15
2019-03-06T18:48:42.654Z,37.42
2019-03-06T18:50:48.206Z,21.00
2019-03-06T18:52:53.707Z,22.82
2019-03-06T18:55:01.372Z,12.63
2019-03-06T18:57:06.439Z,16.93
2019-03-06T18:59:13.429Z,5.33
2019-03-06T19:01:18.957Z,13.03
2019-03-06T19:03:24.478Z,6.17
2019-03-06T19:05:37.849Z,10.53
2019-03-06T19:07:38.610Z,5.95
2019-03-06T19:09:44.207Z,8.90
2019-03-06T19:11:50.064Z,28.57
2019-03-06T19:14:04.930Z,7.70
2019-03-06T19:16:22.839Z,8.58
2019-03-06T19:18:37.468Z,6.22
2019-03-06T19:20:48.841Z,12.58
2019-03-06T19:23:42.713Z,8.08
2019-03-06T19:26:00.438Z,4.45
2019-03-06T19:28:35.995Z,4.05
2019-03-06T19:30:44.685Z,4.75
2019-03-06T19:32:55.163Z,7.85
2019-03-06T19:35:00.754Z,6.90
2019-03-06T19:37:11.837Z,8.13
2019-03-06T19:39:17.551Z,5.95
2019-03-06T19:41:26.185Z,9.60
2019-03-06T19:43:56.535Z,7.75
2019-03-06T19:46:07.036Z,13.58
2019-03-06T19:48:15.611Z,7.00
2019-03-06T19:50:25.815Z,8.15
2019-03-06T19:52:33.545Z,4.40
2019-03-06T19:54:39.421Z,8.03
2019-03-06T19:56:50.844Z,10.30
2019-03-06T19:58:56.115Z,22.17
2019-03-06T20:01:01.798Z,16.95
2019-03-06T20:03:08.872Z,12.20
2019-03-06T20:05:14.660Z,21.48
2019-03-06T20:07:20.198Z,16.12
2019-03-06T20:09:32.319Z,24.35
2019-03-06T20:11:39.390Z,7.70
2019-03-06T20:13:46.418Z,11.33
2019-03-06T20:15:55.095Z,12.58
2019-03-06T20:18:04.099Z,15.58
2019-03-06T20:20:16.068Z,17.10
2019-03-06T20:22:23.524Z,14.60
2019-03-06T20:24:34.263Z,18.35
2019-03-06T20:26:39.814Z,15.13
2019-03-06T20:28:45.531Z,21.00
2019-03-06T20:30:57.548Z,17.48
2019-03-06T20:33:15.093Z,14.73
2019-03-06T20:35:22.196Z,22.67
2019-03-06T20:37:27.791Z,37.80
2019-03-06T20:39:37.845Z,25.17
2019-03-06T20:41:46.341Z,21.45
2019-03-06T20:43:52.066Z,25.57
2019-03-06T20:45:57.564Z,19.05
2019-03-06T20:48:03.141Z,17.57
2019-03-06T20:56:22.188Z,13.50
2019-03-06T20:58:27.708Z,9.75
2019-03-06T21:00:35.027Z,12.93
2019-03-06T21:02:40.554Z,8.78
2019-03-06T21:04:46.054Z,7.67
2019-03-06T21:06:51.602Z,7.50
2019-03-06T21:08:57.119Z,9.93
2019-03-06T21:11:02.663Z,5.90
2019-03-06T21:13:08.244Z,7.83
2019-03-06T21:15:14.983Z,12.23
2019-03-06T21:17:20.507Z,12.30
2019-03-06T21:19:26.206Z,8.85
2019-03-06T21:21:31.743Z,3.50
2019-03-06T21:23:37.288Z,5.25
2019-03-06T21:25:42.765Z,3.72
2019-03-06T21:27:50.643Z,9.03
2019-03-06T21:29:56.207Z,6.22
2019-03-06T21:32:02.102Z,6.15
2019-03-06T21:34:08.862Z,4.83
2019-03-06T21:36:14.388Z,5.90
2019-03-06T21:38:19.852Z,3.85
2019-03-06T21:40:25.356Z,3.60
2019-03-06T21:42:30.850Z,6.28
2019-03-06T21:44:36.377Z,3.22
2019-03-06T21:46:41.943Z,5.87
2019-03-06T21:48:49.179Z,2.87
2019-03-06T21:50:54.672Z,3.27
2019-03-06T21:53:00.166Z,5.10
2019-03-06T21:55:07.433Z,4.10
2019-03-06T21:57:13.007Z,9.75
2019-03-06T21:59:18.695Z,3.87
2019-03-06T22:01:24.230Z,5.55
2019-03-06T22:03:29.771Z,4.50
2019-03-06T22:05:35.295Z,5.75
2019-03-06T22:07:40.860Z,3.80
2019-03-06T22:09:46.376Z,4.85
2019-03-06T22:11:53.590Z,5.40
2019-03-06T22:13:59.107Z,4.30
2019-03-06T22:16:04.608Z,5.80
2019-03-06T22:18:10.110Z,3.00
2019-03-06T22:20:16.727Z,5.85
2019-03-06T22:22:25.428Z,4.03
2019-03-06T22:24:31.061Z,3.02
2019-03-06T22:26:36.607Z,4.25
2019-03-06T22:28:44.243Z,6.42
2019-03-06T22:30:49.926Z,3.12
2019-03-06T22:32:56.467Z,3.77
2019-03-06T22:35:04.887Z,4.33
2019-03-06T22:37:10.767Z,5.65
2019-03-06T22:39:16.242Z,4.60
2019-03-06T22:41:23.085Z,11.40
2019-03-06T22:43:28.722Z,6.17
2019-03-06T22:45:34.507Z,5.40
2019-03-06T22:47:40.193Z,8.68
2019-03-06T22:49:46.765Z,7.53
2019-03-06T22:51:52.360Z,3.87
2019-03-06T22:54:00.006Z,4.78
2019-03-06T22:56:05.854Z,4.58
2019-03-06T22:58:11.566Z,6.20
2019-03-06T23:01:04.950Z,6.87
2019-03-06T23:03:07.379Z,7.95
2019-03-06T23:05:12.956Z,6.33
2019-03-06T23:07:18.764Z,8.05
2019-03-06T23:09:24.523Z,8.33
2019-03-06T23:11:30.059Z,6.00
2019-03-06T23:13:35.819Z,8.23
2019-03-06T23:15:41.375Z,5.20
2019-03-06T23:17:46.906Z,11.85
2019-03-06T23:19:52.745Z,5.15
2019-03-06T23:21:59.754Z,5.22
2019-03-06T23:24:05.547Z,4.72
2019-03-06T23:26:11.090Z,9.55
2019-03-06T23:28:16.639Z,4.22
2019-03-06T23:30:22.514Z,4.30
2019-03-06T23:32:28.634Z,6.90
2019-03-06T23:34:35.662Z,9.43
2019-03-06T23:36:41.524Z,7.53
2019-03-06T23:38:47.062Z,4.22
2019-03-06T23:40:52.611Z,6.83
2019-03-06T23:43:01.023Z,9.30
2019-03-06T23:45:07.815Z,7.12
2019-03-06T23:47:13.610Z,6.03
2019-03-06T23:49:19.296Z,4.33
2019-03-06T23:51:37.890Z,6.80
2019-03-06T23:53:51.147Z,5.37
2019-03-06T23:55:56.602Z,6.10
2019-03-06T23:58:05.121Z,10.03
